Harrison Township, New Jersey
Current Conditions -  °F | °C
As of 8:54 AM on Friday 24 Oct 2014 (Local Time) from KPHL Reporting Station
Scattered Clouds Scattered Clouds  
Wind Chill: 58°   Ceiling: Unl
Heat Index: 58°   Visibility: 10mi
Dew Point: 44°   Wind: 14mph
Humidity: 60%   Direction: 330°NNW
Pressure: 29.87"   Gusts: NA
Location:  39.7176°N, 75.2231°W
Report Text: KPHL 241254Z 33012KT 10SM SCT037 SCT080 14/07 A2987 RMK AO2 SLP113 T01440067
Loading
Personal Weather Stations






























Interactive Weather Map
Tropical Storm Tracking
New forecast layout! Learn more

10-Day Weather Forecast

Advertisements
Track Severe Weather on mobile